Time;durP1;ratioP1;P1;durP2;ratioP2;P2;SDS_P1;SDS_P2;PMS_P1;PMS_P2;Temp;Humidity;BMP_temperature;BMP_pressure;BME280_temperature;BME280_humidity;BME280_pressure;Samples;Min_cycle;Max_cycle;Signal;HPM_P1;HPM_P2
2022/12/14 00:01:19;;;;;;;9.85;6.82;;;;;;;;;;5011153;28;20038;-73
2022/12/14 00:03:50;;;;;;;8.77;6.65;;;;;;;;;;4981096;28;20036;-73
2022/12/14 00:06:16;;;;;;;8.38;6.05;;;;;;;;;;5015712;28;20391;-73
2022/12/14 00:08:43;;;;;;;9.48;5.45;;;;;;;;;;4999748;28;20034;-73
2022/12/14 00:11:12;;;;;;;8.60;6.57;;;;;;;;;;5006344;28;20518;-73
2022/12/14 00:13:44;;;;;;;9.20;6.07;;;;;;;;;;5009891;28;20045;-73
2022/12/14 00:16:16;;;;;;;11.02;7.13;;;;;;;;;;5008014;28;20037;-73
2022/12/14 00:18:43;;;;;;;8.60;6.38;;;;;;;;;;5007696;28;20029;-73
2022/12/14 00:21:13;;;;;;;9.32;6.88;;;;;;;;;;5010523;28;20037;-73
2022/12/14 00:23:42;;;;;;;9.48;6.22;;;;;;;;;;5013472;28;20027;-73
2022/12/14 00:26:11;;;;;;;9.95;7.57;;;;;;;;;;5011371;28;20026;-73
2022/12/14 00:28:37;;;;;;;10.43;7.85;;;;;;;;;;5006368;28;20041;-73
2022/12/14 00:31:05;;;;;;;11.35;7.07;;;;;;;;;;5012710;28;20034;-73
2022/12/14 00:33:31;;;;;;;12.73;8.80;;;;;;;;;;5003144;28;20026;-73
2022/12/14 00:36:00;;;;;;;9.90;8.50;;;;;;;;;;5011794;28;20034;-73
2022/12/14 00:38:28;;;;;;;7.65;6.78;;;;;;;;;;4992796;28;20030;-73
2022/12/14 00:40:54;;;;;;;10.68;8.20;;;;;;;;;;5005610;28;20037;-73
2022/12/14 00:43:22;;;;;;;11.23;8.60;;;;;;;;;;5014066;28;20026;-73
2022/12/14 00:45:50;;;;;;;7.40;6.45;;;;;;;;;;5012696;28;20499;-73
2022/12/14 00:48:18;;;;;;;11.52;8.13;;;;;;;;;;5012380;28;20037;-73
2022/12/14 00:50:45;;;;;;;10.25;8.65;;;;;;;;;;5012542;28;20034;-73
2022/12/14 00:53:13;;;;;;;11.18;7.97;;;;;;;;;;5013430;28;20504;-73
2022/12/14 00:55:39;;;;;;;11.43;8.55;;;;;;;;;;5003044;28;20098;-73
2022/12/14 00:58:08;;;;;;;9.18;6.28;;;;;;;;;;5021266;28;20033;-73
2022/12/14 01:00:37;;;;;;;9.82;7.68;;;;;;;;;;5002997;28;20053;-73
2022/12/14 01:03:09;;;;;;;11.63;8.55;;;;;;;;;;5002306;28;20034;-73
2022/12/14 01:05:38;;;;;;;13.02;9.13;;;;;;;;;;5007347;28;20484;-73
2022/12/14 01:08:08;;;;;;;12.00;6.93;;;;;;;;;;5004915;28;20026;-73
2022/12/14 01:10:39;;;;;;;10.43;7.40;;;;;;;;;;5006551;28;20031;-73
2022/12/14 01:13:10;;;;;;;10.80;8.30;;;;;;;;;;5034062;23;20046;-77
2022/12/14 01:15:36;;;;;;;7.55;6.82;;;;;;;;;;4986217;28;20056;-79
2022/12/14 01:18:04;;;;;;;9.63;7.53;;;;;;;;;;5010654;28;20041;-79
2022/12/14 01:20:31;;;;;;;9.18;8.07;;;;;;;;;;5004931;28;20092;-80
2022/12/14 01:22:58;;;;;;;10.32;8.63;;;;;;;;;;5028426;28;20022;-80
2022/12/14 01:25:31;;;;;;;8.35;7.50;;;;;;;;;;4996445;28;20037;-78
2022/12/14 01:28:00;;;;;;;13.05;8.95;;;;;;;;;;4977772;28;20373;-78
2022/12/14 01:30:25;;;;;;;10.25;8.45;;;;;;;;;;4991978;28;20105;-78
2022/12/14 01:32:51;;;;;;;12.10;8.20;;;;;;;;;;4980659;28;20428;-78
2022/12/14 01:35:19;;;;;;;11.25;7.85;;;;;;;;;;4996924;28;20030;-78
2022/12/14 01:37:50;;;;;;;9.68;8.50;;;;;;;;;;4993729;28;20033;-78
2022/12/14 01:40:16;;;;;;;13.77;9.80;;;;;;;;;;4975239;28;20062;-78
2022/12/14 01:42:47;;;;;;;12.70;9.68;;;;;;;;;;4974739;28;20033;-78
2022/12/14 01:45:18;;;;;;;13.70;9.00;;;;;;;;;;4990138;28;20030;-78
2022/12/14 01:47:47;;;;;;;11.75;9.18;;;;;;;;;;4988201;28;20026;-78
2022/12/14 01:50:13;;;;;;;12.98;8.95;;;;;;;;;;4984782;28;20034;-78
2022/12/14 01:52:39;;;;;;;11.77;8.35;;;;;;;;;;4992988;28;20555;-78
2022/12/14 01:55:07;;;;;;;10.60;8.95;;;;;;;;;;4995098;28;20030;-78
2022/12/14 01:57:36;;;;;;;11.18;8.82;;;;;;;;;;4992082;28;20073;-78
2022/12/14 02:00:03;;;;;;;12.70;8.80;;;;;;;;;;4998911;28;20399;-78
2022/12/14 02:02:31;;;;;;;11.05;9.13;;;;;;;;;;4992198;28;20031;-78
2022/12/14 02:04:57;;;;;;;9.80;7.70;;;;;;;;;;4989393;28;20026;-78
2022/12/14 02:07:27;;;;;;;12.90;8.55;;;;;;;;;;4984116;28;20022;-79
2022/12/14 02:09:57;;;;;;;12.77;8.10;;;;;;;;;;4987302;28;20389;-78
2022/12/14 02:12:30;;;;;;;13.23;9.23;;;;;;;;;;4991495;28;20477;-78
2022/12/14 02:14:59;;;;;;;20.58;9.57;;;;;;;;;;4993017;28;20037;-78
2022/12/14 02:17:27;;;;;;;10.10;8.55;;;;;;;;;;4996777;28;20038;-78
2022/12/14 02:19:59;;;;;;;9.80;8.80;;;;;;;;;;4994055;28;20037;-78
2022/12/14 02:22:31;;;;;;;11.63;8.95;;;;;;;;;;4990955;28;20081;-78
2022/12/14 02:25:03;;;;;;;16.58;10.48;;;;;;;;;;4989715;28;20053;-78
2022/12/14 02:27:43;;;;;;;18.20;10.57;;;;;;;;;;4989192;28;20018;-78
2022/12/14 02:30:13;;;;;;;10.85;9.75;;;;;;;;;;4989297;28;20249;-78
2022/12/14 02:32:48;;;;;;;11.30;9.02;;;;;;;;;;4994618;28;20032;-78
2022/12/14 02:35:20;;;;;;;12.95;10.50;;;;;;;;;;4991765;28;20041;-77
2022/12/14 02:38:00;;;;;;;17.58;11.80;;;;;;;;;;4989669;28;20046;-78
2022/12/14 02:40:40;;;;;;;11.73;9.60;;;;;;;;;;4990594;28;20045;-78
2022/12/14 02:43:23;;;;;;;20.30;10.98;;;;;;;;;;4990649;28;20039;-78
2022/12/14 02:46:17;;;;;;;9.97;8.87;;;;;;;;;;4988624;28;20018;-79
2022/12/14 02:48:55;;;;;;;10.20;9.27;;;;;;;;;;4999344;28;20273;-79
2022/12/14 02:51:32;;;;;;;13.80;10.07;;;;;;;;;;4987479;28;20030;-79
2022/12/14 02:54:17;;;;;;;12.40;9.85;;;;;;;;;;4984725;28;20401;-79
2022/12/14 02:56:50;;;;;;;13.18;10.85;;;;;;;;;;4988395;28;20534;-78
2022/12/14 02:59:16;;;;;;;13.10;11.30;;;;;;;;;;4994511;28;20030;-79
2022/12/14 03:01:46;;;;;;;12.90;9.88;;;;;;;;;;4998868;28;20033;-79
2022/12/14 03:04:15;;;;;;;15.88;10.35;;;;;;;;;;4987498;28;20041;-79
2022/12/14 03:06:56;;;;;;;12.35;9.98;;;;;;;;;;5012327;28;20031;-79
2022/12/14 03:09:24;;;;;;;12.50;9.35;;;;;;;;;;5000597;28;20026;-79
2022/12/14 03:11:54;;;;;;;14.13;8.90;;;;;;;;;;4992204;28;20026;-79
2022/12/14 03:14:47;;;;;;;16.27;12.30;;;;;;;;;;4991686;28;20042;-79
2022/12/14 03:17:18;;;;;;;14.35;11.32;;;;;;;;;;4972559;28;20034;-79
2022/12/14 03:19:47;;;;;;;12.32;10.48;;;;;;;;;;4996742;28;20400;-79
2022/12/14 03:22:19;;;;;;;13.10;10.48;;;;;;;;;;4999305;28;20029;-79
2022/12/14 03:24:51;;;;;;;13.30;9.95;;;;;;;;;;5009036;28;20041;-79
2022/12/14 03:27:20;;;;;;;13.65;10.13;;;;;;;;;;4975678;28;20028;-79
2022/12/14 03:29:51;;;;;;;13.20;11.23;;;;;;;;;;4991244;28;20378;-79
2022/12/14 03:32:23;;;;;;;14.95;12.45;;;;;;;;;;4989199;28;20384;-79
2022/12/14 03:34:52;;;;;;;17.70;11.88;;;;;;;;;;4971540;28;20037;-79
2022/12/14 03:37:38;;;;;;;15.50;10.95;;;;;;;;;;4990102;28;20034;-79
2022/12/14 03:40:09;;;;;;;17.98;11.45;;;;;;;;;;4990166;28;20030;-80
2022/12/14 03:42:40;;;;;;;14.35;10.98;;;;;;;;;;4994696;28;20030;-79
2022/12/14 03:45:06;;;;;;;15.32;10.75;;;;;;;;;;4990403;28;20031;-80
2022/12/14 03:47:40;;;;;;;17.15;11.00;;;;;;;;;;4990373;28;20037;-79
2022/12/14 03:50:14;;;;;;;13.40;11.25;;;;;;;;;;4994175;28;20029;-79
2022/12/14 03:53:01;;;;;;;16.73;12.82;;;;;;;;;;4993550;28;20041;-79
2022/12/14 03:55:48;;;;;;;22.98;14.82;;;;;;;;;;4994660;28;20025;-79
2022/12/14 03:58:17;;;;;;;14.77;11.35;;;;;;;;;;4992301;28;20445;-79
2022/12/14 04:00:52;;;;;;;14.13;12.15;;;;;;;;;;4996206;28;20531;-79
2022/12/14 04:03:26;;;;;;;12.73;10.68;;;;;;;;;;5013654;28;20039;-78
2022/12/14 04:05:57;;;;;;;15.15;11.48;;;;;;;;;;5009009;28;20032;-78
2022/12/14 04:08:43;;;;;;;16.08;11.82;;;;;;;;;;5001044;28;20026;-78
2022/12/14 04:19:36;;;;;;;16.92;12.27;;;;;;;;;;4990793;28;20041;-79
2022/12/14 04:22:05;;;;;;;20.98;13.23;;;;;;;;;;4978749;28;20058;-79
2022/12/14 04:27:28;;;;;;;17.30;12.45;;;;;;;;;;4987172;28;20490;-79
2022/12/14 04:29:58;;;;;;;18.73;12.10;;;;;;;;;;4991908;28;20550;-79
2022/12/14 04:32:32;;;;;;;15.90;11.90;;;;;;;;;;4977459;28;20030;-79
2022/12/14 04:35:11;;;;;;;17.25;12.43;;;;;;;;;;4997828;28;20038;-79
2022/12/14 04:37:38;;;;;;;16.23;13.18;;;;;;;;;;4995048;28;20045;-79
2022/12/14 04:40:09;;;;;;;16.70;12.25;;;;;;;;;;4979457;28;20026;-79
2022/12/14 04:42:44;;;;;;;19.10;13.63;;;;;;;;;;4992152;28;20034;-79
2022/12/14 04:45:16;;;;;;;17.27;11.40;;;;;;;;;;4996948;28;20034;-79
2022/12/14 04:47:47;;;;;;;16.52;12.65;;;;;;;;;;4978205;28;20030;-79
2022/12/14 04:50:39;;;;;;;17.58;12.18;;;;;;;;;;5004187;28;20396;-79
2022/12/14 04:53:15;;;;;;;15.88;12.45;;;;;;;;;;4983633;28;20396;-79
2022/12/14 04:55:46;;;;;;;17.40;13.32;;;;;;;;;;4990542;28;20040;-79
2022/12/14 04:58:27;;;;;;;18.33;13.07;;;;;;;;;;4991674;28;20034;-79
2022/12/14 05:00:55;;;;;;;17.95;12.48;;;;;;;;;;4991333;28;20034;-79
2022/12/14 05:03:29;;;;;;;16.13;12.93;;;;;;;;;;4984287;28;20034;-79
2022/12/14 05:05:55;;;;;;;20.95;14.63;;;;;;;;;;5004143;28;20045;-79
2022/12/14 05:08:26;;;;;;;19.88;13.55;;;;;;;;;;4997343;28;20022;-79
2022/12/14 05:11:00;;;;;;;18.60;14.43;;;;;;;;;;4992997;28;20052;-79
2022/12/14 05:13:32;;;;;;;13.45;11.95;;;;;;;;;;4996735;28;20026;-79
2022/12/14 05:15:58;;;;;;;16.90;14.10;;;;;;;;;;5002185;28;20049;-79
2022/12/14 05:18:26;;;;;;;15.88;13.02;;;;;;;;;;4987206;28;20022;-79
2022/12/14 05:20:54;;;;;;;19.15;14.50;;;;;;;;;;4994622;28;20022;-79
2022/12/14 05:23:20;;;;;;;22.95;15.13;;;;;;;;;;4991383;28;20386;-79
2022/12/14 05:25:49;;;;;;;17.80;13.43;;;;;;;;;;4984748;28;20038;-79
2022/12/14 05:28:17;;;;;;;22.17;13.43;;;;;;;;;;4994475;28;20023;-79
2022/12/14 05:30:43;;;;;;;21.40;17.52;;;;;;;;;;4991704;28;20511;-80
2022/12/14 05:33:19;;;;;;;18.60;11.85;;;;;;;;;;4995737;28;20078;-79
2022/12/14 05:35:45;;;;;;;15.50;13.35;;;;;;;;;;4989902;28;20041;-79
2022/12/14 05:38:15;;;;;;;22.42;15.18;;;;;;;;;;4993962;28;20026;-79
2022/12/14 05:40:46;;;;;;;18.70;13.77;;;;;;;;;;4991830;28;20042;-79
2022/12/14 05:43:14;;;;;;;22.52;14.93;;;;;;;;;;5005174;28;20396;-79
2022/12/14 05:45:47;;;;;;;18.83;14.68;;;;;;;;;;4986359;28;20034;-79
2022/12/14 05:48:13;;;;;;;20.35;13.23;;;;;;;;;;4957648;28;20026;-79
2022/12/14 05:50:41;;;;;;;17.60;13.15;;;;;;;;;;4990041;28;20124;-79
2022/12/14 05:53:07;;;;;;;18.10;13.60;;;;;;;;;;4993469;28;20026;-79
2022/12/14 05:55:37;;;;;;;19.08;16.08;;;;;;;;;;4985223;28;20061;-79
2022/12/14 05:58:03;;;;;;;15.73;13.43;;;;;;;;;;4991715;28;20493;-79
2022/12/14 06:00:31;;;;;;;16.33;12.82;;;;;;;;;;4994929;28;20038;-79
2022/12/14 06:03:02;;;;;;;15.68;13.95;;;;;;;;;;4984008;28;20034;-79
2022/12/14 06:05:27;;;;;;;20.48;15.10;;;;;;;;;;4992828;28;20034;-78
2022/12/14 06:07:56;;;;;;;14.88;11.93;;;;;;;;;;4993025;28;20586;-79
2022/12/14 06:10:22;;;;;;;20.90;15.98;;;;;;;;;;4992434;28;20033;-79
2022/12/14 06:12:47;;;;;;;17.55;12.43;;;;;;;;;;4996010;28;20029;-78
2022/12/14 06:15:13;;;;;;;21.30;16.50;;;;;;;;;;4993930;28;20057;-78
2022/12/14 06:17:43;;;;;;;19.33;15.85;;;;;;;;;;4987204;28;20392;-78
2022/12/14 06:20:09;;;;;;;19.63;15.02;;;;;;;;;;4993197;28;21660;-78
2022/12/14 06:22:40;;;;;;;22.88;15.70;;;;;;;;;;4989926;28;20052;-78
2022/12/14 06:25:06;;;;;;;22.02;19.30;;;;;;;;;;5001799;28;20048;-77
2022/12/14 06:27:32;;;;;;;17.50;14.88;;;;;;;;;;4992709;28;20389;-78
2022/12/14 06:29:58;;;;;;;25.73;17.48;;;;;;;;;;4991047;28;20034;-78
2022/12/14 06:32:29;;;;;;;17.80;14.73;;;;;;;;;;4996708;28;20026;-78
2022/12/14 06:34:57;;;;;;;15.30;13.52;;;;;;;;;;4976365;28;20049;-77
2022/12/14 06:37:26;;;;;;;23.52;14.00;;;;;;;;;;4989745;28;20053;-78
2022/12/14 06:39:59;;;;;;;17.58;15.30;;;;;;;;;;4989129;28;20038;-78
2022/12/14 06:42:27;;;;;;;24.67;17.33;;;;;;;;;;4996308;28;20034;-78
2022/12/14 06:44:53;;;;;;;24.00;18.23;;;;;;;;;;4992977;28;20039;-78
2022/12/14 06:47:19;;;;;;;25.92;17.70;;;;;;;;;;4982451;28;20816;-77
2022/12/14 06:49:47;;;;;;;19.92;16.75;;;;;;;;;;4952363;28;20061;-77
2022/12/14 06:52:13;;;;;;;18.00;16.08;;;;;;;;;;4957594;28;20034;-77
2022/12/14 06:54:43;;;;;;;21.67;17.70;;;;;;;;;;4985360;28;20401;-78
2022/12/14 06:57:12;;;;;;;26.42;18.65;;;;;;;;;;5007270;28;20530;-77
2022/12/14 06:59:40;;;;;;;23.85;14.02;;;;;;;;;;4966654;28;20066;-77
2022/12/14 07:02:07;;;;;;;19.08;14.48;;;;;;;;;;5002929;28;20039;-78
2022/12/14 07:04:40;;;;;;;22.08;16.45;;;;;;;;;;4985254;28;20026;-78
2022/12/14 07:07:08;;;;;;;19.73;13.90;;;;;;;;;;4997780;28;20042;-78
2022/12/14 07:09:34;;;;;;;18.88;14.55;;;;;;;;;;4987383;28;20042;-78
2022/12/14 07:12:02;;;;;;;16.42;14.68;;;;;;;;;;4988420;28;20038;-78
2022/12/14 07:14:28;;;;;;;18.77;16.83;;;;;;;;;;5003013;23;20496;-71
2022/12/14 07:16:56;;;;;;;24.35;15.85;;;;;;;;;;4970110;28;20040;-71
2022/12/14 07:19:22;;;;;;;20.38;17.65;;;;;;;;;;4989156;28;20408;-72
2022/12/14 07:21:48;;;;;;;25.55;18.20;;;;;;;;;;4985629;28;20037;-72
2022/12/14 07:24:16;;;;;;;22.10;18.35;;;;;;;;;;4982358;28;20030;-72
2022/12/14 07:26:42;;;;;;;21.48;16.65;;;;;;;;;;4982824;28;20683;-71
2022/12/14 07:29:10;;;;;;;17.13;15.32;;;;;;;;;;4989512;28;20037;-72
2022/12/14 07:31:36;;;;;;;22.58;17.33;;;;;;;;;;4984363;28;20038;-71
2022/12/14 07:34:02;;;;;;;20.63;16.67;;;;;;;;;;4988464;28;20034;-71
2022/12/14 07:36:29;;;;;;;24.45;16.58;;;;;;;;;;4992206;28;20459;-71
2022/12/14 07:38:55;;;;;;;23.15;16.92;;;;;;;;;;4996966;28;20473;-71
2022/12/14 07:41:29;;;;;;;20.20;16.85;;;;;;;;;;4989510;28;20026;-71
2022/12/14 07:43:55;;;;;;;;;;;;;;;;;;4958105;28;20056;-70
2022/12/14 07:46:22;;;;;;;22.20;17.45;;;;;;;;;;4974555;28;20004;-71
2022/12/14 07:48:51;;;;;;;18.67;15.57;;;;;;;;;;4986315;28;20034;-71
2022/12/14 07:51:18;;;;;;;20.63;15.57;;;;;;;;;;4981064;28;20038;-71
2022/12/14 07:53:45;;;;;;;26.52;19.20;;;;;;;;;;4968223;28;20373;-74
2022/12/14 07:56:15;;;;;;;22.75;18.40;;;;;;;;;;4983576;28;20041;-71
2022/12/14 07:58:41;;;;;;;21.08;16.48;;;;;;;;;;4989857;28;20496;-71
2022/12/14 08:01:15;;;;;;;26.52;20.08;;;;;;;;;;4988455;28;20030;-70
2022/12/14 08:03:44;;;;;;;21.05;14.65;;;;;;;;;;4987071;28;20042;-71
2022/12/14 08:06:11;;;;;;;24.58;18.92;;;;;;;;;;4974978;28;20033;-71
2022/12/14 08:08:37;;;;;;;27.02;17.60;;;;;;;;;;4990375;28;20027;-71
2022/12/14 08:11:03;;;;;;;25.40;17.88;;;;;;;;;;4990736;28;20022;-71
2022/12/14 08:13:34;;;;;;;18.83;15.32;;;;;;;;;;4993764;28;20030;-70
2022/12/14 08:16:01;;;;;;;19.90;16.88;;;;;;;;;;4990900;28;20034;-71
2022/12/14 08:18:27;;;;;;;27.45;21.00;;;;;;;;;;5004994;28;20208;-71
2022/12/14 08:20:52;;;;;;;23.35;18.48;;;;;;;;;;4991460;28;20082;-71
2022/12/14 08:23:18;;;;;;;28.95;18.85;;;;;;;;;;4993474;28;20034;-71
2022/12/14 08:25:44;;;;;;;30.05;20.42;;;;;;;;;;4991154;28;20026;-71
2022/12/14 08:28:12;;;;;;;24.85;18.00;;;;;;;;;;4976147;28;20047;-71
2022/12/14 08:30:43;;;;;;;25.20;18.27;;;;;;;;;;4990899;28;20022;-71
2022/12/14 08:33:11;;;;;;;24.48;21.17;;;;;;;;;;4988007;28;20487;-71
2022/12/14 08:35:39;;;;;;;23.17;16.63;;;;;;;;;;4986156;28;20078;-72
2022/12/14 08:38:05;;;;;;;20.02;15.88;;;;;;;;;;4987791;28;20042;-71
2022/12/14 08:40:36;;;;;;;21.83;18.45;;;;;;;;;;4990807;28;20046;-72
2022/12/14 08:43:03;;;;;;;25.92;18.83;;;;;;;;;;4988359;28;20034;-71
2022/12/14 08:45:29;;;;;;;20.08;16.38;;;;;;;;;;4994225;28;20026;-72
2022/12/14 08:47:57;;;;;;;23.25;17.23;;;;;;;;;;4965599;28;20037;-71
2022/12/14 08:50:26;;;;;;;21.65;17.95;;;;;;;;;;4983574;28;20033;-72
2022/12/14 08:52:52;;;;;;;23.75;20.55;;;;;;;;;;4987995;28;20038;-71
2022/12/14 08:55:20;;;;;;;23.60;20.05;;;;;;;;;;4998970;28;20433;-71
2022/12/14 08:57:48;;;;;;;32.72;21.38;;;;;;;;;;4994660;28;20034;-71
2022/12/14 09:00:15;;;;;;;20.77;17.77;;;;;;;;;;4991458;28;20038;-71
2022/12/14 09:02:49;;;;;;;24.48;18.63;;;;;;;;;;4992971;28;20473;-71
2022/12/14 09:05:18;;;;;;;29.33;20.38;;;;;;;;;;4992064;28;20030;-71
2022/12/14 09:07:44;;;;;;;30.58;22.15;;;;;;;;;;4990738;28;20038;-71
2022/12/14 09:10:10;;;;;;;28.48;20.40;;;;;;;;;;4988255;28;20046;-71
2022/12/14 09:12:36;;;;;;;26.65;20.17;;;;;;;;;;4997738;28;20038;-71
2022/12/14 09:15:04;;;;;;;27.20;20.92;;;;;;;;;;4990952;28;20133;-71
2022/12/14 09:17:30;;;;;;;25.88;19.75;;;;;;;;;;4986892;28;20045;-71
2022/12/14 09:19:56;;;;;;;28.60;20.17;;;;;;;;;;4986913;28;20393;-72
2022/12/14 09:22:28;;;;;;;26.45;21.25;;;;;;;;;;4986909;28;20412;-71
2022/12/14 09:24:56;;;;;;;23.98;20.45;;;;;;;;;;4988898;28;20038;-72
2022/12/14 09:27:24;;;;;;;22.42;17.60;;;;;;;;;;4986035;28;20049;-71
2022/12/14 09:29:53;;;;;;;28.95;21.17;;;;;;;;;;4986200;28;20027;-72
2022/12/14 09:32:18;;;;;;;26.85;19.20;;;;;;;;;;4991502;28;20038;-71
2022/12/14 09:34:47;;;;;;;26.17;21.73;;;;;;;;;;4991245;28;20026;-72
2022/12/14 09:37:15;;;;;;;25.38;18.20;;;;;;;;;;4987170;28;20030;-71
2022/12/14 09:39:41;;;;;;;24.13;18.55;;;;;;;;;;4986265;28;20046;-71
2022/12/14 09:42:25;;;;;;;24.35;17.85;;;;;;;;;;4985547;28;20122;-72
2022/12/14 09:44:54;;;;;;;26.25;19.48;;;;;;;;;;4984355;28;20026;-72
2022/12/14 09:47:19;;;;;;;26.35;20.35;;;;;;;;;;4989313;28;20033;-72
2022/12/14 09:49:45;;;;;;;23.42;19.67;;;;;;;;;;4966060;28;20564;-73
2022/12/14 09:52:19;;;;;;;26.70;19.13;;;;;;;;;;4985150;28;20377;-72
2022/12/14 09:54:46;;;;;;;26.17;19.83;;;;;;;;;;4984799;28;20041;-72
2022/12/14 09:57:18;;;;;;;19.40;17.05;;;;;;;;;;4969612;28;20404;-72
2022/12/14 09:59:44;;;;;;;23.35;17.55;;;;;;;;;;4989753;28;20038;-72
2022/12/14 10:02:30;;;;;;;30.58;20.65;;;;;;;;;;4988027;28;20160;-72
2022/12/14 10:05:01;;;;;;;23.17;16.08;;;;;;;;;;4984449;28;20033;-72
2022/12/14 10:07:40;;;;;;;27.13;18.35;;;;;;;;;;4985513;28;20034;-72
2022/12/14 10:10:09;;;;;;;25.73;20.83;;;;;;;;;;4984130;28;20027;-72
2022/12/14 10:12:38;;;;;;;32.60;24.52;;;;;;;;;;4985852;28;20053;-73
2022/12/14 10:15:17;;;;;;;36.75;26.98;;;;;;;;;;4988130;28;20077;-72
2022/12/14 10:17:49;;;;;;;27.73;22.58;;;;;;;;;;4964160;28;20042;-72
2022/12/14 10:20:15;;;;;;;25.45;18.75;;;;;;;;;;4989828;28;20399;-72
2022/12/14 10:22:44;;;;;;;22.02;17.23;;;;;;;;;;4991635;28;20117;-72
2022/12/14 10:25:15;;;;;;;23.98;17.15;;;;;;;;;;4994976;28;20223;-72
2022/12/14 10:27:53;;;;;;;22.63;18.88;;;;;;;;;;4987386;28;20030;-72
2022/12/14 10:30:20;;;;;;;20.33;17.95;;;;;;;;;;5000572;28;20042;-72
2022/12/14 10:32:48;;;;;;;27.05;18.63;;;;;;;;;;4973035;28;20050;-72
2022/12/14 10:35:17;;;;;;;21.35;16.90;;;;;;;;;;4998030;28;20030;-71
2022/12/14 10:37:44;;;;;;;18.48;16.50;;;;;;;;;;4985987;28;20057;-71
2022/12/14 10:40:17;;;;;;;24.98;17.08;;;;;;;;;;4984044;28;20576;-71
2022/12/14 10:42:45;;;;;;;24.27;19.33;;;;;;;;;;4990252;28;20396;-71
2022/12/14 10:45:26;;;;;;;19.30;15.70;;;;;;;;;;4984663;28;20038;-71
2022/12/14 10:48:04;;;;;;;22.40;16.58;;;;;;;;;;4977846;28;20473;-71
2022/12/14 10:50:30;;;;;;;26.63;18.70;;;;;;;;;;4993781;28;20057;-71
2022/12/14 10:52:58;;;;;;;26.35;18.25;;;;;;;;;;5002177;28;20033;-71
2022/12/14 10:55:29;;;;;;;21.88;19.45;;;;;;;;;;4991171;28;20030;-71
2022/12/14 10:57:57;;;;;;;23.48;18.30;;;;;;;;;;4989686;28;20037;-71
2022/12/14 11:00:23;;;;;;;19.00;16.58;;;;;;;;;;4989214;28;20034;-71
2022/12/14 11:02:53;;;;;;;21.70;17.48;;;;;;;;;;4989923;28;20485;-71
2022/12/14 11:05:28;;;;;;;20.73;16.77;;;;;;;;;;4987463;28;20026;-71
2022/12/14 11:07:54;;;;;;;28.85;19.30;;;;;;;;;;4990908;28;20034;-71
2022/12/14 11:10:27;;;;;;;24.45;18.50;;;;;;;;;;4985656;28;20499;-71
2022/12/14 11:12:53;;;;;;;22.45;18.25;;;;;;;;;;4989089;28;20030;-71
2022/12/14 11:15:25;;;;;;;20.52;18.30;;;;;;;;;;4982583;28;20042;-71
2022/12/14 11:18:03;;;;;;;23.00;19.77;;;;;;;;;;4980555;28;20034;-71
2022/12/14 11:20:29;;;;;;;27.98;18.98;;;;;;;;;;4989396;28;20126;-71
2022/12/14 11:22:55;;;;;;;23.98;17.60;;;;;;;;;;4968393;28;20092;-71
2022/12/14 11:25:35;;;;;;;25.30;20.20;;;;;;;;;;4988101;28;20026;-71
2022/12/14 11:28:04;;;;;;;23.55;17.50;;;;;;;;;;4988350;28;20027;-71
2022/12/14 11:30:32;;;;;;;20.35;16.85;;;;;;;;;;4990022;28;20030;-71
2022/12/14 11:33:00;;;;;;;23.90;18.38;;;;;;;;;;4989736;28;20039;-72
2022/12/14 11:35:26;;;;;;;23.80;19.67;;;;;;;;;;4971095;28;20038;-72
2022/12/14 11:37:58;;;;;;;25.58;19.27;;;;;;;;;;4993980;28;20042;-71
2022/12/14 11:40:24;;;;;;;23.30;19.38;;;;;;;;;;4988299;28;20486;-71
2022/12/14 11:42:54;;;;;;;26.17;18.58;;;;;;;;;;4975684;28;20409;-72
2022/12/14 11:45:31;;;;;;;35.60;20.52;;;;;;;;;;4989166;28;20400;-72
2022/12/14 11:48:14;;;;;;;25.73;20.63;;;;;;;;;;4990844;28;20496;-69
2022/12/14 11:50:41;;;;;;;21.45;18.45;;;;;;;;;;4984392;28;20034;-70
2022/12/14 11:53:11;;;;;;;27.23;20.75;;;;;;;;;;4992613;28;20030;-71
2022/12/14 11:55:38;;;;;;;26.65;18.58;;;;;;;;;;4989087;28;20061;-71
2022/12/14 11:58:07;;;;;;;26.55;19.83;;;;;;;;;;4989107;28;20033;-71
2022/12/14 12:00:59;;;;;;;27.45;23.45;;;;;;;;;;4986781;28;20504;-71
2022/12/14 12:03:31;;;;;;;30.98;21.85;;;;;;;;;;4989846;28;20049;-71
2022/12/14 12:06:04;;;;;;;24.13;20.75;;;;;;;;;;4991261;28;20392;-71
2022/12/14 12:08:36;;;;;;;29.77;21.45;;;;;;;;;;4992889;28;20031;-71
2022/12/14 12:11:04;;;;;;;22.85;20.27;;;;;;;;;;4999199;28;20523;-72
2022/12/14 12:13:31;;;;;;;23.95;19.33;;;;;;;;;;4971472;28;20042;-71
2022/12/14 12:16:04;;;;;;;30.08;20.70;;;;;;;;;;4971764;28;20133;-71
2022/12/14 12:18:39;;;;;;;26.13;21.20;;;;;;;;;;4987995;28;20492;-71
2022/12/14 12:21:08;;;;;;;24.88;21.20;;;;;;;;;;4975762;28;20049;-71
2022/12/14 12:23:40;;;;;;;30.55;23.02;;;;;;;;;;4982903;28;20472;-71
2022/12/14 12:26:19;;;;;;;33.42;22.40;;;;;;;;;;4998803;28;20034;-71
2022/12/14 12:28:50;;;;;;;30.50;22.63;;;;;;;;;;4988440;28;20034;-71
2022/12/14 12:31:24;;;;;;;30.33;19.23;;;;;;;;;;4992356;28;20027;-71
2022/12/14 12:33:57;;;;;;;29.33;20.95;;;;;;;;;;4989871;28;20034;-71
2022/12/14 12:36:24;;;;;;;23.38;17.65;;;;;;;;;;4981794;28;20421;-71
2022/12/14 12:38:52;;;;;;;25.23;19.55;;;;;;;;;;4971338;28;20026;-71
2022/12/14 12:41:30;;;;;;;23.50;18.27;;;;;;;;;;4990966;28;20053;-71
2022/12/14 12:43:59;;;;;;;23.27;18.15;;;;;;;;;;4987844;28;20034;-71
2022/12/14 12:46:44;;;;;;;24.90;18.52;;;;;;;;;;4984889;28;20389;-72
2022/12/14 12:49:16;;;;;;;24.55;19.75;;;;;;;;;;4991781;28;20030;-71
2022/12/14 12:51:57;;;;;;;28.42;21.65;;;;;;;;;;4994099;28;20030;-71
2022/12/14 12:54:58;;;;;;;30.10;20.20;;;;;;;;;;4994596;28;20034;-71
2022/12/14 12:57:28;;;;;;;25.23;19.58;;;;;;;;;;4987885;28;20042;-72
2022/12/14 12:59:55;;;;;;;31.48;21.30;;;;;;;;;;4992858;28;20051;-71
2022/12/14 13:02:21;;;;;;;27.38;20.55;;;;;;;;;;4994664;28;20031;-71
2022/12/14 13:04:50;;;;;;;24.42;19.40;;;;;;;;;;4995418;28;19925;-71
2022/12/14 13:07:34;;;;;;;30.23;22.58;;;;;;;;;;4976258;28;20038;-71
2022/12/14 13:10:00;;;;;;;29.92;20.73;;;;;;;;;;4994132;28;20027;-71
2022/12/14 13:12:32;;;;;;;35.15;20.75;;;;;;;;;;4992609;28;20029;-71
2022/12/14 13:14:58;;;;;;;28.33;20.23;;;;;;;;;;5005957;23;20050;-78
2022/12/14 13:17:27;;;;;;;30.65;22.92;;;;;;;;;;5020799;28;20033;-78
2022/12/14 13:19:54;;;;;;;30.25;20.90;;;;;;;;;;4990034;28;20049;-79
2022/12/14 13:22:26;;;;;;;29.67;22.02;;;;;;;;;;5021581;28;20393;-78
2022/12/14 13:24:53;;;;;;;26.60;20.60;;;;;;;;;;4982200;28;20030;-78
2022/12/14 13:27:34;;;;;;;26.13;20.38;;;;;;;;;;4972781;28;20023;-78
2022/12/14 13:30:23;;;;;;;26.73;21.77;;;;;;;;;;4967620;28;20409;-78
2022/12/14 13:33:00;;;;;;;23.15;18.73;;;;;;;;;;4997471;28;20290;-78
2022/12/14 13:35:29;;;;;;;25.77;20.65;;;;;;;;;;4969606;28;20026;-78
2022/12/14 13:38:01;;;;;;;29.25;19.75;;;;;;;;;;4954727;28;20035;-78
2022/12/14 13:40:43;;;;;;;31.02;19.80;;;;;;;;;;4972299;28;20033;-78
2022/12/14 13:43:27;;;;;;;26.30;20.92;;;;;;;;;;4962355;28;20027;-79
2022/12/14 13:45:53;;;;;;;24.98;19.90;;;;;;;;;;4969580;28;20035;-79
2022/12/14 13:48:26;;;;;;;21.60;18.70;;;;;;;;;;4968435;28;20060;-79
2022/12/14 13:50:56;;;;;;;26.70;18.33;;;;;;;;;;4977793;28;20046;-79
2022/12/14 13:53:26;;;;;;;25.10;20.70;;;;;;;;;;4973757;28;20038;-79
2022/12/14 13:55:56;;;;;;;26.80;20.70;;;;;;;;;;4966539;28;20425;-79
2022/12/14 13:58:41;;;;;;;30.45;21.60;;;;;;;;;;4974906;28;20038;-79
2022/12/14 14:01:12;;;;;;;28.05;20.48;;;;;;;;;;4993313;28;20037;-79
2022/12/14 14:03:38;;;;;;;23.70;19.15;;;;;;;;;;4976006;28;20496;-79
2022/12/14 14:06:22;;;;;;;23.73;18.50;;;;;;;;;;4971955;28;20034;-78
2022/12/14 14:08:51;;;;;;;22.60;18.58;;;;;;;;;;4993129;28;20388;-79
2022/12/14 14:11:20;;;;;;;22.48;18.20;;;;;;;;;;4978774;28;20022;-79
2022/12/14 14:13:46;;;;;;;24.27;18.48;;;;;;;;;;4958313;28;20045;-79
2022/12/14 14:16:27;;;;;;;27.50;19.48;;;;;;;;;;4970486;28;20659;-79
2022/12/14 14:19:11;;;;;;;25.75;19.85;;;;;;;;;;4959634;28;20035;-79
2022/12/14 14:21:41;;;;;;;22.25;18.60;;;;;;;;;;5005754;28;20043;-79
2022/12/14 14:24:14;;;;;;;30.65;19.35;;;;;;;;;;4963198;28;20038;-79
2022/12/14 14:26:41;;;;;;;29.10;20.08;;;;;;;;;;4999468;28;20059;-79
2022/12/14 14:29:21;;;;;;;30.02;22.10;;;;;;;;;;4975673;28;20026;-79
2022/12/14 14:31:53;;;;;;;24.77;20.67;;;;;;;;;;4977213;28;20031;-79
2022/12/14 14:34:24;;;;;;;25.60;21.13;;;;;;;;;;4986873;28;20516;-78
2022/12/14 14:36:50;;;;;;;25.02;20.95;;;;;;;;;;4969945;28;20489;-78
2022/12/14 14:39:33;;;;;;;26.67;21.92;;;;;;;;;;4976055;28;20485;-79
2022/12/14 14:42:06;;;;;;;31.42;23.10;;;;;;;;;;4977128;28;20378;-78
2022/12/14 14:44:56;;;;;;;28.73;20.65;;;;;;;;;;4973706;28;20046;-79
2022/12/14 14:47:21;;;;;;;26.88;23.85;;;;;;;;;;4969909;28;20399;-79
2022/12/14 14:49:50;;;;;;;27.55;22.58;;;;;;;;;;4975691;28;20121;-79
2022/12/14 14:52:37;;;;;;;30.10;22.27;;;;;;;;;;4972524;28;20362;-79